Time;durP1;ratioP1;P1;durP2;ratioP2;P2;SDS_P1;SDS_P2;PMS_P1;PMS_P2;Temp;Humidity;BMP_temperature;BMP_pressure;BME280_temperature;BME280_humidity;BME280_pressure;Samples;Min_cycle;Max_cycle;Signal;HPM_P1;HPM_P2
2023/12/06 00:00:50;;;;;;;55.15;30.58;;;;;;;;;;5073506;28;20051;-68
2023/12/06 00:03:16;;;;;;;57.40;29.90;;;;;;;;;;5073984;28;20040;-68
2023/12/06 00:05:42;;;;;;;55.83;30.48;;;;;;;;;;5073753;28;20088;-68
2023/12/06 00:08:09;;;;;;;53.50;29.85;;;;;;;;;;5071982;28;20123;-68
2023/12/06 00:10:35;;;;;;;54.65;28.83;;;;;;;;;;5073631;28;20418;-68
2023/12/06 00:13:01;;;;;;;52.38;28.70;;;;;;;;;;5073688;28;20041;-68
2023/12/06 00:15:27;;;;;;;57.38;30.27;;;;;;;;;;5072985;28;20170;-68
2023/12/06 00:17:53;;;;;;;55.17;30.98;;;;;;;;;;5075875;28;20449;-68
2023/12/06 00:20:19;;;;;;;52.28;29.23;;;;;;;;;;5093699;28;20647;-68
2023/12/06 00:22:45;;;;;;;54.42;30.25;;;;;;;;;;5093330;28;20496;-68
2023/12/06 00:25:11;;;;;;;59.30;30.88;;;;;;;;;;5090186;28;20116;-68
2023/12/06 00:27:38;;;;;;;58.40;32.50;;;;;;;;;;5073283;28;20051;-68
2023/12/06 00:30:05;;;;;;;58.95;30.70;;;;;;;;;;5072977;28;20037;-68
2023/12/06 00:32:31;;;;;;;60.88;31.17;;;;;;;;;;5072335;28;20044;-68
2023/12/06 00:34:57;;;;;;;61.28;31.23;;;;;;;;;;5072407;28;20045;-68
2023/12/06 00:37:23;;;;;;;56.60;30.75;;;;;;;;;;5072545;28;20128;-68
2023/12/06 00:39:49;;;;;;;57.85;30.48;;;;;;;;;;5072874;28;20033;-68
2023/12/06 00:42:16;;;;;;;52.05;29.02;;;;;;;;;;5072793;28;20085;-68
2023/12/06 00:44:43;;;;;;;51.97;29.38;;;;;;;;;;5072424;28;20044;-68
2023/12/06 00:47:09;;;;;;;55.70;30.20;;;;;;;;;;5073000;28;20047;-68
2023/12/06 00:49:35;;;;;;;57.33;30.80;;;;;;;;;;5072868;28;20112;-68
2023/12/06 00:52:01;;;;;;;64.05;33.45;;;;;;;;;;5072194;28;20048;-67
2023/12/06 00:54:27;;;;;;;56.58;30.40;;;;;;;;;;5071392;28;20041;-67
2023/12/06 00:56:53;;;;;;;61.75;31.33;;;;;;;;;;5072278;28;20148;-67
2023/12/06 00:59:19;;;;;;;59.85;31.20;;;;;;;;;;5072333;28;20127;-67
2023/12/06 01:01:45;;;;;;;56.13;31.58;;;;;;;;;;5071067;28;20410;-67
2023/12/06 01:04:11;;;;;;;59.97;31.55;;;;;;;;;;5072658;28;20107;-67
2023/12/06 01:06:37;;;;;;;58.35;31.85;;;;;;;;;;5072443;28;20395;-67
2023/12/06 01:09:06;;;;;;;58.30;31.45;;;;;;;;;;5071870;28;20045;-67
2023/12/06 01:11:32;;;;;;;63.05;32.88;;;;;;;;;;5072256;28;20080;-67
2023/12/06 01:13:58;;;;;;;64.63;32.85;;;;;;;;;;5072187;28;20545;-67
2023/12/06 01:16:24;;;;;;;60.78;31.88;;;;;;;;;;5072000;28;20044;-67
2023/12/06 01:18:50;;;;;;;65.47;30.90;;;;;;;;;;5081343;28;20044;-67
2023/12/06 01:21:16;;;;;;;59.08;32.33;;;;;;;;;;5092560;28;20518;-67
2023/12/06 01:23:42;;;;;;;68.03;32.90;;;;;;;;;;5092131;28;20036;-67
2023/12/06 01:26:08;;;;;;;66.40;33.17;;;;;;;;;;5081290;28;20083;-67
2023/12/06 01:28:35;;;;;;;61.97;32.22;;;;;;;;;;5072061;28;20048;-67
2023/12/06 01:31:01;;;;;;;60.75;31.42;;;;;;;;;;5071413;28;20271;-67
2023/12/06 01:33:27;;;;;;;65.05;32.55;;;;;;;;;;5071827;28;20056;-67
2023/12/06 01:35:53;;;;;;;68.72;32.03;;;;;;;;;;5070486;28;20140;-67
2023/12/06 01:38:19;;;;;;;63.22;32.97;;;;;;;;;;5071293;28;20040;-67
2023/12/06 01:40:45;;;;;;;62.67;30.98;;;;;;;;;;5071823;28;20055;-67
2023/12/06 01:43:11;;;;;;;65.60;32.22;;;;;;;;;;5070607;28;20640;-67
2023/12/06 01:45:37;;;;;;;64.35;31.98;;;;;;;;;;5071105;28;20072;-67
2023/12/06 01:48:03;;;;;;;60.40;32.20;;;;;;;;;;5071412;28;20036;-67
2023/12/06 01:50:30;;;;;;;63.17;31.90;;;;;;;;;;5071824;28;20049;-67
2023/12/06 01:52:58;;;;;;;62.92;31.92;;;;;;;;;;5071208;28;20057;-67
2023/12/06 01:55:25;;;;;;;64.30;32.92;;;;;;;;;;5071784;28;20549;-67
2023/12/06 01:57:51;;;;;;;62.85;30.95;;;;;;;;;;5071202;28;20061;-67
2023/12/06 02:00:17;;;;;;;64.32;31.67;;;;;;;;;;5071172;28;20060;-67
2023/12/06 02:02:44;;;;;;;62.00;30.52;;;;;;;;;;5070051;28;20045;-67
2023/12/06 02:05:12;;;;;;;61.38;31.35;;;;;;;;;;5071114;28;20119;-67
2023/12/06 02:07:39;;;;;;;58.33;31.15;;;;;;;;;;5070784;28;20479;-67
2023/12/06 02:10:06;;;;;;;65.07;31.55;;;;;;;;;;5070213;28;20044;-67
2023/12/06 02:12:32;;;;;;;59.90;30.42;;;;;;;;;;5071543;28;20051;-67
2023/12/06 02:14:59;;;;;;;62.75;32.03;;;;;;;;;;5069560;28;20117;-67
2023/12/06 02:17:26;;;;;;;59.92;30.83;;;;;;;;;;5071077;28;20115;-67
2023/12/06 02:19:52;;;;;;;58.47;29.75;;;;;;;;;;5090046;28;20052;-67
2023/12/06 02:22:19;;;;;;;59.85;30.92;;;;;;;;;;5091087;28;20044;-67
2023/12/06 02:24:46;;;;;;;60.33;31.85;;;;;;;;;;5091550;28;20048;-67
2023/12/06 02:27:12;;;;;;;57.38;30.80;;;;;;;;;;5071411;28;20044;-67
2023/12/06 02:29:38;;;;;;;57.78;29.85;;;;;;;;;;5070598;28;20075;-67
2023/12/06 02:32:05;;;;;;;61.95;31.92;;;;;;;;;;5071176;28;20087;-67
2023/12/06 02:34:32;;;;;;;57.65;29.42;;;;;;;;;;5071126;28;20041;-67
2023/12/06 02:37:00;;;;;;;54.45;29.15;;;;;;;;;;5070829;28;20475;-67
2023/12/06 02:39:28;;;;;;;56.63;28.27;;;;;;;;;;5071101;28;20040;-67
2023/12/06 02:41:54;;;;;;;53.25;26.10;;;;;;;;;;5069665;28;20120;-67
2023/12/06 02:44:20;;;;;;;58.35;29.45;;;;;;;;;;5070617;28;20455;-67
2023/12/06 02:46:46;;;;;;;55.80;28.98;;;;;;;;;;5071117;28;20780;-67
2023/12/06 02:49:12;;;;;;;55.10;28.52;;;;;;;;;;5070933;28;20540;-67
2023/12/06 02:51:38;;;;;;;55.17;28.08;;;;;;;;;;5070699;28;20388;-67
2023/12/06 02:54:04;;;;;;;51.65;28.13;;;;;;;;;;5069398;28;20453;-67
2023/12/06 02:56:30;;;;;;;53.67;28.77;;;;;;;;;;5071503;28;20056;-67
2023/12/06 02:58:56;;;;;;;55.17;28.05;;;;;;;;;;5074373;28;20575;-67
2023/12/06 03:01:22;;;;;;;54.10;27.90;;;;;;;;;;5074865;28;20044;-67
2023/12/06 03:03:48;;;;;;;52.03;27.15;;;;;;;;;;5074662;28;20048;-67
2023/12/06 03:06:14;;;;;;;55.05;29.02;;;;;;;;;;5074249;28;20090;-67
2023/12/06 03:08:40;;;;;;;55.10;28.38;;;;;;;;;;5074709;28;20091;-67
2023/12/06 03:11:06;;;;;;;53.10;28.35;;;;;;;;;;5074634;28;20075;-67
2023/12/06 03:13:32;;;;;;;54.63;27.67;;;;;;;;;;5074391;28;20471;-67
2023/12/06 03:15:58;;;;;;;54.00;28.20;;;;;;;;;;5074894;28;20044;-67
2023/12/06 03:18:24;;;;;;;55.63;26.73;;;;;;;;;;5081464;28;20604;-67
2023/12/06 03:20:50;;;;;;;53.85;27.73;;;;;;;;;;5094191;28;20040;-67
2023/12/06 03:23:16;;;;;;;53.42;27.58;;;;;;;;;;5094472;28;20093;-67
2023/12/06 03:25:43;;;;;;;51.92;27.38;;;;;;;;;;5087391;28;20041;-67
2023/12/06 03:28:09;;;;;;;51.83;27.65;;;;;;;;;;5073618;28;20047;-67
2023/12/06 03:30:35;;;;;;;53.58;26.90;;;;;;;;;;5074573;28;20601;-67
2023/12/06 03:33:01;;;;;;;48.80;26.50;;;;;;;;;;5074337;28;20414;-67
2023/12/06 03:35:27;;;;;;;52.65;27.67;;;;;;;;;;5073707;28;20040;-67
2023/12/06 03:37:54;;;;;;;49.58;25.25;;;;;;;;;;5074110;28;20044;-67
2023/12/06 03:40:20;;;;;;;47.20;25.60;;;;;;;;;;5074122;28;20048;-67
2023/12/06 03:42:46;;;;;;;46.25;25.98;;;;;;;;;;5073823;28;20099;-67
2023/12/06 03:45:12;;;;;;;50.67;26.42;;;;;;;;;;5073819;28;20581;-67
2023/12/06 03:47:38;;;;;;;46.03;25.63;;;;;;;;;;5074006;28;20059;-67
2023/12/06 03:50:05;;;;;;;44.40;24.40;;;;;;;;;;5073750;28;20483;-67
2023/12/06 03:52:31;;;;;;;43.92;25.20;;;;;;;;;;5074105;28;20041;-67
2023/12/06 03:54:57;;;;;;;50.83;25.25;;;;;;;;;;5073979;28;20098;-67
2023/12/06 03:57:24;;;;;;;47.47;24.60;;;;;;;;;;5073203;28;20060;-67
2023/12/06 03:59:50;;;;;;;47.28;26.10;;;;;;;;;;5073911;28;20059;-67
2023/12/06 04:02:17;;;;;;;45.25;24.33;;;;;;;;;;5073755;28;20639;-67
2023/12/06 04:04:43;;;;;;;48.13;23.90;;;;;;;;;;5073149;28;20064;-67
2023/12/06 04:07:09;;;;;;;45.95;24.63;;;;;;;;;;5073655;28;20037;-67
2023/12/06 04:09:35;;;;;;;42.75;24.85;;;;;;;;;;5072395;28;20115;-67
2023/12/06 04:12:01;;;;;;;44.33;25.40;;;;;;;;;;5073111;28;20060;-67
2023/12/06 04:14:27;;;;;;;46.92;24.05;;;;;;;;;;5073389;28;20074;-67
2023/12/06 04:16:53;;;;;;;46.90;24.92;;;;;;;;;;5073397;28;20084;-67
2023/12/06 04:19:19;;;;;;;51.75;25.27;;;;;;;;;;5085895;28;20052;-67
2023/12/06 04:21:45;;;;;;;42.47;23.83;;;;;;;;;;5093455;28;20071;-67
2023/12/06 04:24:11;;;;;;;42.60;25.70;;;;;;;;;;5093329;28;20643;-67
2023/12/06 04:26:37;;;;;;;42.17;24.48;;;;;;;;;;5078287;28;20040;-67
2023/12/06 04:29:03;;;;;;;40.25;23.63;;;;;;;;;;5073356;28;20532;-67
2023/12/06 04:31:29;;;;;;;41.25;23.17;;;;;;;;;;5073418;28;20037;-67
2023/12/06 04:33:55;;;;;;;38.42;22.55;;;;;;;;;;5072633;28;20076;-67
2023/12/06 04:36:21;;;;;;;41.35;23.58;;;;;;;;;;5072966;28;20044;-67
2023/12/06 04:38:48;;;;;;;41.22;23.73;;;;;;;;;;5073073;28;20113;-67
2023/12/06 04:41:14;;;;;;;39.83;22.85;;;;;;;;;;5072961;28;20631;-67
2023/12/06 04:43:40;;;;;;;39.22;22.83;;;;;;;;;;5072856;28;20036;-67
2023/12/06 04:46:06;;;;;;;41.60;22.75;;;;;;;;;;5073083;28;20060;-67
2023/12/06 04:48:32;;;;;;;40.40;23.02;;;;;;;;;;5072622;28;20040;-67
2023/12/06 04:50:58;;;;;;;39.47;22.77;;;;;;;;;;5072583;28;20088;-67
2023/12/06 04:53:24;;;;;;;38.05;23.08;;;;;;;;;;5072842;28;20040;-67
2023/12/06 04:55:50;;;;;;;39.08;22.67;;;;;;;;;;5072895;28;20040;-67
2023/12/06 04:58:16;;;;;;;36.22;21.35;;;;;;;;;;5071979;28;20060;-67
2023/12/06 05:00:43;;;;;;;36.25;21.52;;;;;;;;;;5071306;28;20040;-67
2023/12/06 05:03:10;;;;;;;33.88;21.23;;;;;;;;;;5072752;28;20425;-67
2023/12/06 05:05:36;;;;;;;35.38;21.45;;;;;;;;;;5072204;28;20036;-67
2023/12/06 05:08:03;;;;;;;35.25;20.95;;;;;;;;;;5072481;28;20044;-67
2023/12/06 05:10:29;;;;;;;39.28;21.20;;;;;;;;;;5072570;28;20037;-67
2023/12/06 05:12:57;;;;;;;35.00;20.38;;;;;;;;;;5071936;28;20124;-67
2023/12/06 05:15:23;;;;;;;36.45;21.42;;;;;;;;;;5072440;28;20040;-67
2023/12/06 05:17:49;;;;;;;34.05;21.38;;;;;;;;;;5074160;28;20052;-67
2023/12/06 05:20:16;;;;;;;35.67;20.88;;;;;;;;;;5091573;28;20485;-67
2023/12/06 05:22:42;;;;;;;36.33;20.75;;;;;;;;;;5091284;28;20092;-67
2023/12/06 05:25:08;;;;;;;34.58;20.40;;;;;;;;;;5088571;28;20055;-67
2023/12/06 05:27:34;;;;;;;37.20;21.23;;;;;;;;;;5071443;28;20076;-67
2023/12/06 05:30:01;;;;;;;31.92;20.17;;;;;;;;;;5072005;28;20040;-67
2023/12/06 05:32:27;;;;;;;36.15;21.17;;;;;;;;;;5071995;28;20044;-67
2023/12/06 05:34:53;;;;;;;38.03;21.52;;;;;;;;;;5071408;28;20072;-67
2023/12/06 05:37:19;;;;;;;34.45;21.10;;;;;;;;;;5071780;28;20040;-67
2023/12/06 05:39:45;;;;;;;34.63;20.48;;;;;;;;;;5072043;28;20053;-67
2023/12/06 05:42:11;;;;;;;38.08;21.10;;;;;;;;;;5070107;28;20086;-67
2023/12/06 05:44:37;;;;;;;37.53;20.92;;;;;;;;;;5071549;28;20487;-67
2023/12/06 05:47:03;;;;;;;36.80;20.80;;;;;;;;;;5071848;28;20055;-67
2023/12/06 05:49:29;;;;;;;32.83;20.80;;;;;;;;;;5071136;28;20075;-67
2023/12/06 05:51:55;;;;;;;33.22;20.90;;;;;;;;;;5071677;28;20360;-67
2023/12/06 05:54:21;;;;;;;36.63;21.33;;;;;;;;;;5070307;28;20055;-67
2023/12/06 05:56:47;;;;;;;31.02;19.50;;;;;;;;;;5071025;28;20045;-67
2023/12/06 05:59:13;;;;;;;34.55;20.73;;;;;;;;;;5071450;28;20446;-67
2023/12/06 06:01:39;;;;;;;32.35;20.25;;;;;;;;;;5070069;28;20129;-67
2023/12/06 06:04:05;;;;;;;36.47;21.42;;;;;;;;;;5069944;28;20437;-68
2023/12/06 06:06:35;;;;;;;34.53;22.15;;;;;;;;;;5071291;28;20052;-68
2023/12/06 06:09:01;;;;;;;36.80;21.30;;;;;;;;;;5071377;28;20123;-68
2023/12/06 06:11:27;;;;;;;31.25;19.52;;;;;;;;;;5071002;28;20432;-68
2023/12/06 06:13:54;;;;;;;34.38;20.67;;;;;;;;;;5071195;28;20076;-68
2023/12/06 06:16:20;;;;;;;35.30;21.13;;;;;;;;;;5071516;28;20115;-68
2023/12/06 06:18:46;;;;;;;37.55;21.05;;;;;;;;;;5080624;28;20118;-68
2023/12/06 06:21:12;;;;;;;36.78;21.77;;;;;;;;;;5091490;28;20510;-68
2023/12/06 06:23:39;;;;;;;35.67;22.52;;;;;;;;;;5091170;28;20047;-68
2023/12/06 06:26:05;;;;;;;38.58;22.33;;;;;;;;;;5080554;28;20463;-68
2023/12/06 06:28:31;;;;;;;36.25;21.60;;;;;;;;;;5070859;28;20036;-68
2023/12/06 06:30:57;;;;;;;34.58;21.67;;;;;;;;;;5070415;28;20083;-68
2023/12/06 06:33:23;;;;;;;33.72;20.73;;;;;;;;;;5070996;28;20133;-68
2023/12/06 06:35:49;;;;;;;32.03;21.15;;;;;;;;;;5070986;28;20041;-68
2023/12/06 06:38:16;;;;;;;32.90;21.88;;;;;;;;;;5070933;28;20492;-68
2023/12/06 06:40:42;;;;;;;32.78;20.35;;;;;;;;;;5069208;28;20457;-68
2023/12/06 06:43:08;;;;;;;33.05;20.05;;;;;;;;;;5071215;28;20390;-68
2023/12/06 06:45:35;;;;;;;34.20;21.52;;;;;;;;;;5069463;28;20063;-68
2023/12/06 06:48:02;;;;;;;33.97;21.50;;;;;;;;;;5069370;28;20045;-68
2023/12/06 06:50:28;;;;;;;31.67;21.20;;;;;;;;;;5070879;28;20048;-68
2023/12/06 06:52:54;;;;;;;31.38;20.00;;;;;;;;;;5070842;28;20044;-68
2023/12/06 06:55:20;;;;;;;33.60;21.48;;;;;;;;;;5070661;28;20120;-67
2023/12/06 06:57:46;;;;;;;30.50;19.48;;;;;;;;;;5070458;28;20689;-67
2023/12/06 07:00:16;;;;;;;30.70;20.38;;;;;;;;;;5070976;28;20087;-67
2023/12/06 07:02:42;;;;;;;35.78;20.98;;;;;;;;;;5070669;28;20040;-67
2023/12/06 07:05:12;;;;;;;34.00;20.35;;;;;;;;;;5069501;28;20483;-67
2023/12/06 07:07:39;;;;;;;35.55;20.45;;;;;;;;;;5070811;28;20094;-67
2023/12/06 07:10:06;;;;;;;32.17;19.90;;;;;;;;;;5070124;28;20048;-67
2023/12/06 07:12:32;;;;;;;38.60;21.25;;;;;;;;;;5070795;28;20040;-67
2023/12/06 07:15:01;;;;;;;30.10;20.25;;;;;;;;;;5070913;28;20059;-67
2023/12/06 07:17:27;;;;;;;31.90;20.08;;;;;;;;;;5070191;28;20123;-67
2023/12/06 07:19:54;;;;;;;35.58;21.48;;;;;;;;;;5089768;28;20040;-67
2023/12/06 07:22:21;;;;;;;34.97;21.13;;;;;;;;;;5089015;28;20129;-67
2023/12/06 07:24:47;;;;;;;31.50;20.77;;;;;;;;;;5079246;28;20040;-67
2023/12/06 07:27:14;;;;;;;35.25;21.50;;;;;;;;;;5090715;28;20073;-67
2023/12/06 07:29:42;;;;;;;32.35;21.10;;;;;;;;;;5090656;28;20040;-67
2023/12/06 07:32:09;;;;;;;32.30;21.10;;;;;;;;;;5089457;28;20039;-66
2023/12/06 07:34:35;;;;;;;31.63;21.02;;;;;;;;;;5089165;28;20051;-67
2023/12/06 07:37:01;;;;;;;36.28;21.65;;;;;;;;;;5089868;28;20391;-67
2023/12/06 07:39:27;;;;;;;35.03;21.77;;;;;;;;;;5089364;28;20518;-67
2023/12/06 07:41:53;;;;;;;29.58;20.27;;;;;;;;;;5090049;28;20111;-67
2023/12/06 07:44:20;;;;;;;32.10;19.88;;;;;;;;;;5087444;28;20467;-68
2023/12/06 07:46:48;;;;;;;32.03;20.27;;;;;;;;;;5073349;28;20040;-67
2023/12/06 07:49:14;;;;;;;30.73;20.55;;;;;;;;;;5090604;28;20093;-67
2023/12/06 07:51:40;;;;;;;32.63;19.23;;;;;;;;;;5093778;28;20493;-67
2023/12/06 07:54:06;;;;;;;31.25;19.80;;;;;;;;;;5078095;28;20079;-67
2023/12/06 07:56:33;;;;;;;29.02;19.35;;;;;;;;;;5081482;28;20056;-67
2023/12/06 07:59:00;;;;;;;30.13;18.92;;;;;;;;;;5084182;28;20047;-67
2023/12/06 08:01:31;;;;;;;31.70;20.27;;;;;;;;;;5093173;28;20043;-67
2023/12/06 08:04:00;;;;;;;28.75;20.23;;;;;;;;;;5091591;28;20048;-67
2023/12/06 08:06:27;;;;;;;25.30;18.15;;;;;;;;;;5088152;28;20044;-67
2023/12/06 08:08:53;;;;;;;27.58;19.52;;;;;;;;;;5081274;28;20040;-67
2023/12/06 08:11:20;;;;;;;31.33;19.90;;;;;;;;;;5084089;28;20048;-67
2023/12/06 08:13:49;;;;;;;29.15;19.10;;;;;;;;;;5085316;28;20499;-67
2023/12/06 08:16:15;;;;;;;32.30;19.73;;;;;;;;;;5084354;28;20054;-67
2023/12/06 08:18:41;;;;;;;28.45;19.17;;;;;;;;;;5089709;28;20043;-67
2023/12/06 08:21:08;;;;;;;34.88;19.00;;;;;;;;;;5091924;28;20075;-67
2023/12/06 08:23:37;;;;;;;32.80;19.05;;;;;;;;;;5086638;28;20150;-67
2023/12/06 08:26:06;;;;;;;29.73;18.92;;;;;;;;;;5081032;28;20482;-67
2023/12/06 08:28:33;;;;;;;25.98;19.25;;;;;;;;;;5080926;28;20032;-67
2023/12/06 08:30:59;;;;;;;26.38;19.05;;;;;;;;;;5091297;28;20040;-67
2023/12/06 08:33:25;;;;;;;29.88;20.40;;;;;;;;;;5078067;28;20040;-67
2023/12/06 08:35:51;;;;;;;30.77;18.90;;;;;;;;;;5090655;28;20470;-67
2023/12/06 08:38:18;;;;;;;26.45;18.63;;;;;;;;;;5090799;28;20559;-67
2023/12/06 08:40:44;;;;;;;33.58;20.48;;;;;;;;;;5091122;28;20090;-67
2023/12/06 08:43:10;;;;;;;28.80;18.80;;;;;;;;;;5081427;28;20152;-67
2023/12/06 08:45:36;;;;;;;29.10;19.17;;;;;;;;;;5081036;28;20101;-67
2023/12/06 08:48:04;;;;;;;29.90;18.75;;;;;;;;;;5078321;28;20072;-67
2023/12/06 08:50:30;;;;;;;27.52;18.63;;;;;;;;;;5088378;28;20425;-67
2023/12/06 08:52:56;;;;;;;30.33;19.23;;;;;;;;;;5089126;28;20036;-67
2023/12/06 08:55:22;;;;;;;30.88;19.17;;;;;;;;;;5090706;28;20373;-67
2023/12/06 08:57:50;;;;;;;31.98;19.63;;;;;;;;;;5088339;28;20043;-67
2023/12/06 09:00:17;;;;;;;30.30;20.02;;;;;;;;;;5081562;28;20444;-67
2023/12/06 09:02:43;;;;;;;26.40;18.83;;;;;;;;;;5089105;28;20554;-67
2023/12/06 09:05:11;;;;;;;28.63;20.30;;;;;;;;;;5091325;28;20067;-67
2023/12/06 09:07:37;;;;;;;29.50;19.38;;;;;;;;;;5091137;28;20629;-67
2023/12/06 09:10:04;;;;;;;29.70;19.00;;;;;;;;;;5091033;28;20446;-67
2023/12/06 09:12:31;;;;;;;27.15;18.67;;;;;;;;;;5088508;28;20048;-67
2023/12/06 09:14:57;;;;;;;29.08;17.92;;;;;;;;;;5088905;28;20082;-67
2023/12/06 09:17:23;;;;;;;28.63;18.85;;;;;;;;;;5072474;28;20124;-67
2023/12/06 09:19:51;;;;;;;25.33;17.75;;;;;;;;;;5077140;28;20040;-67
2023/12/06 09:22:17;;;;;;;30.02;17.98;;;;;;;;;;5085467;28;20048;-67
2023/12/06 09:24:44;;;;;;;29.15;19.00;;;;;;;;;;5084035;28;20054;-67
2023/12/06 09:27:10;;;;;;;30.50;19.48;;;;;;;;;;5085281;28;20059;-67
2023/12/06 09:29:36;;;;;;;28.00;18.85;;;;;;;;;;5090483;28;20383;-67
2023/12/06 09:32:02;;;;;;;27.27;18.17;;;;;;;;;;5081014;28;20119;-69
2023/12/06 09:34:28;;;;;;;29.05;17.40;;;;;;;;;;5085252;28;20043;-67
2023/12/06 09:36:54;;;;;;;31.33;18.33;;;;;;;;;;5088159;28;20120;-67
2023/12/06 09:39:20;;;;;;;27.67;18.23;;;;;;;;;;5089557;28;20036;-67
2023/12/06 09:41:47;;;;;;;25.73;18.15;;;;;;;;;;5090150;28;20055;-67
2023/12/06 09:44:16;;;;;;;30.13;17.73;;;;;;;;;;5081262;28;20036;-67
2023/12/06 09:46:43;;;;;;;30.30;18.00;;;;;;;;;;5080277;28;20036;-67
2023/12/06 09:49:10;;;;;;;25.48;18.08;;;;;;;;;;5090285;28;20040;-67
2023/12/06 09:51:36;;;;;;;25.08;17.50;;;;;;;;;;5080703;28;20148;-66
2023/12/06 09:54:02;;;;;;;25.95;17.55;;;;;;;;;;5090854;28;20039;-66
2023/12/06 09:56:28;;;;;;;30.13;17.40;;;;;;;;;;5090480;28;20056;-66
2023/12/06 09:58:54;;;;;;;26.95;17.08;;;;;;;;;;5089259;28;20079;-66
2023/12/06 10:01:21;;;;;;;28.42;17.40;;;;;;;;;;5082170;28;20391;-66
2023/12/06 10:03:48;;;;;;;26.85;17.02;;;;;;;;;;5085775;28;20540;-66
2023/12/06 10:06:16;;;;;;;30.48;17.73;;;;;;;;;;5076893;28;20039;-66
2023/12/06 10:08:48;;;;;;;29.23;17.15;;;;;;;;;;5077674;28;20055;-67
2023/12/06 10:11:14;;;;;;;24.48;16.30;;;;;;;;;;5081161;28;20047;-67
2023/12/06 10:13:41;;;;;;;34.85;17.80;;;;;;;;;;5088962;28;20046;-67
2023/12/06 10:16:17;;;;;;;26.08;17.45;;;;;;;;;;5083700;28;20544;-66
2023/12/06 10:18:46;;;;;;;27.27;17.92;;;;;;;;;;5078965;28;20043;-67
2023/12/06 10:21:13;;;;;;;26.60;17.27;;;;;;;;;;5086254;28;20498;-66
2023/12/06 10:23:39;;;;;;;32.80;19.30;;;;;;;;;;5077316;28;20040;-63
2023/12/06 10:26:17;;;;;;;29.70;18.85;;;;;;;;;;5075631;28;20435;-64
2023/12/06 10:28:45;;;;;;;29.98;18.92;;;;;;;;;;5080586;28;20040;-64
2023/12/06 10:31:11;;;;;;;28.05;18.50;;;;;;;;;;5082920;28;20044;-65
2023/12/06 10:33:39;;;;;;;30.55;18.60;;;;;;;;;;5076979;28;20046;-64
2023/12/06 10:36:08;;;;;;;31.23;19.40;;;;;;;;;;5078989;28;20040;-64
2023/12/06 10:38:35;;;;;;;31.10;19.13;;;;;;;;;;5081131;28;20071;-64
2023/12/06 10:41:03;;;;;;;29.73;18.33;;;;;;;;;;5073011;28;20570;-63
2023/12/06 10:43:30;;;;;;;27.08;18.27;;;;;;;;;;5082735;28;20514;-63
2023/12/06 10:45:57;;;;;;;32.33;19.13;;;;;;;;;;5078223;28;20044;-63
2023/12/06 10:48:24;;;;;;;30.25;18.75;;;;;;;;;;5090284;28;20044;-63
2023/12/06 10:50:51;;;;;;;26.40;17.52;;;;;;;;;;5082861;28;20051;-63
2023/12/06 10:53:17;;;;;;;28.10;18.27;;;;;;;;;;5075800;28;20046;-63
2023/12/06 10:55:44;;;;;;;23.95;16.35;;;;;;;;;;5078076;28;20043;-63
2023/12/06 10:58:10;;;;;;;29.27;16.42;;;;;;;;;;5075881;28;20052;-63
2023/12/06 11:00:36;;;;;;;23.77;17.25;;;;;;;;;;5083175;28;20058;-64
2023/12/06 11:03:03;;;;;;;25.85;16.80;;;;;;;;;;5080726;28;20036;-64
2023/12/06 11:05:31;;;;;;;27.65;17.58;;;;;;;;;;5079087;28;20032;-63
2023/12/06 11:08:12;;;;;;;24.83;16.63;;;;;;;;;;5085527;28;20117;-63
2023/12/06 11:10:44;;;;;;;30.48;16.63;;;;;;;;;;5080483;28;20032;-63
2023/12/06 11:13:18;;;;;;;23.52;15.70;;;;;;;;;;5077371;28;20125;-65
2023/12/06 11:15:58;;;;;;;27.95;16.25;;;;;;;;;;5069829;28;20068;-63
2023/12/06 11:18:26;;;;;;;24.70;15.65;;;;;;;;;;5088634;28;20035;-63
2023/12/06 11:20:53;;;;;;;24.88;16.60;;;;;;;;;;5088655;28;20147;-64
2023/12/06 11:23:21;;;;;;;24.80;16.70;;;;;;;;;;5081535;28;20043;-64
2023/12/06 11:25:49;;;;;;;24.52;16.80;;;;;;;;;;5083502;28;20186;-65
2023/12/06 11:28:17;;;;;;;30.90;18.50;;;;;;;;;;5082137;28;20043;-64
2023/12/06 11:30:49;;;;;;;28.90;17.45;;;;;;;;;;5089762;28;20040;-64
2023/12/06 11:33:15;;;;;;;28.77;17.35;;;;;;;;;;5081336;28;20040;-64
2023/12/06 11:35:44;;;;;;;25.90;17.70;;;;;;;;;;5092182;28;20119;-64
2023/12/06 11:38:10;;;;;;;27.73;17.17;;;;;;;;;;5093005;28;20052;-64
2023/12/06 11:40:37;;;;;;;27.88;16.67;;;;;;;;;;5091755;28;20040;-64
2023/12/06 11:43:03;;;;;;;27.38;17.10;;;;;;;;;;5092755;28;20036;-66
2023/12/06 11:45:30;;;;;;;24.88;16.40;;;;;;;;;;5093357;28;20035;-72
2023/12/06 11:48:05;;;;;;;23.90;16.17;;;;;;;;;;5092864;28;20040;-72
2023/12/06 11:50:47;;;;;;;27.42;16.50;;;;;;;;;;5091635;28;20079;-72
2023/12/06 11:53:13;;;;;;;25.23;15.55;;;;;;;;;;5093519;28;20044;-72
2023/12/06 11:55:43;;;;;;;23.00;14.70;;;;;;;;;;5091155;28;20062;-72
2023/12/06 11:58:12;;;;;;;26.90;16.63;;;;;;;;;;5086717;28;20394;-72
2023/12/06 12:00:45;;;;;;;23.88;16.42;;;;;;;;;;5075255;28;20047;-72
2023/12/06 12:03:11;;;;;;;24.20;16.30;;;;;;;;;;5080370;28;20390;-72
2023/12/06 12:05:38;;;;;;;21.48;14.68;;;;;;;;;;5092379;28;20109;-72
2023/12/06 12:08:04;;;;;;;23.55;16.02;;;;;;;;;;5091890;28;20040;-71
2023/12/06 12:10:31;;;;;;;20.65;15.13;;;;;;;;;;5078647;28;20581;-71
2023/12/06 12:12:58;;;;;;;21.85;15.05;;;;;;;;;;5093515;28;21024;-71
2023/12/06 12:15:27;;;;;;;20.45;14.82;;;;;;;;;;5093206;28;20073;-71
2023/12/06 12:17:54;;;;;;;21.73;15.43;;;;;;;;;;5087921;28;20044;-72
2023/12/06 12:20:20;;;;;;;29.90;14.68;;;;;;;;;;5087330;28;20036;-72
2023/12/06 12:22:47;;;;;;;22.23;14.75;;;;;;;;;;5089473;28;20044;-72
2023/12/06 12:25:14;;;;;;;22.08;14.65;;;;;;;;;;5089451;28;20028;-72
2023/12/06 12:27:40;;;;;;;21.25;14.40;;;;;;;;;;5081879;28;20523;-72
2023/12/06 12:30:10;;;;;;;20.52;14.48;;;;;;;;;;5092933;28;20040;-72
2023/12/06 12:32:39;;;;;;;20.35;14.57;;;;;;;;;;5091712;28;20113;-71
2023/12/06 12:35:05;;;;;;;25.88;14.73;;;;;;;;;;5092945;28;20553;-71
2023/12/06 12:37:31;;;;;;;23.30;14.85;;;;;;;;;;5091531;28;20086;-71
2023/12/06 12:39:57;;;;;;;20.30;14.18;;;;;;;;;;5090592;28;20067;-71
2023/12/06 12:42:25;;;;;;;21.67;13.70;;;;;;;;;;5091468;28;20050;-71
2023/12/06 12:44:51;;;;;;;19.05;13.23;;;;;;;;;;5072879;28;20079;-72
2023/12/06 12:47:17;;;;;;;19.98;14.23;;;;;;;;;;5074001;28;20048;-71
2023/12/06 12:49:43;;;;;;;22.85;13.75;;;;;;;;;;5088621;28;20360;-72
2023/12/06 12:52:09;;;;;;;22.95;14.25;;;;;;;;;;5081604;28;20048;-73
2023/12/06 12:54:37;;;;;;;21.20;13.20;;;;;;;;;;5071937;28;20048;-73
2023/12/06 12:57:03;;;;;;;21.40;13.25;;;;;;;;;;5091007;28;20128;-73
2023/12/06 12:59:33;;;;;;;18.63;13.32;;;;;;;;;;5090492;28;20056;-73
2023/12/06 13:01:59;;;;;;;21.67;13.80;;;;;;;;;;5086324;28;20612;-73
2023/12/06 13:04:25;;;;;;;20.10;13.57;;;;;;;;;;5088877;28;20562;-73
2023/12/06 13:06:54;;;;;;;17.60;13.07;;;;;;;;;;5084933;28;20041;-73
2023/12/06 13:09:20;;;;;;;20.98;14.27;;;;;;;;;;5090174;28;20074;-73
2023/12/06 13:11:47;;;;;;;19.15;13.55;;;;;;;;;;5091069;28;20040;-73
2023/12/06 13:14:15;;;;;;;22.23;13.88;;;;;;;;;;5075466;28;20425;-73
2023/12/06 13:16:41;;;;;;;20.20;13.70;;;;;;;;;;5082724;28;20040;-73
2023/12/06 13:19:08;;;;;;;23.35;14.00;;;;;;;;;;5075531;28;20483;-73
2023/12/06 13:21:34;;;;;;;17.88;13.60;;;;;;;;;;5089928;28;20438;-73
2023/12/06 13:24:00;;;;;;;21.52;13.88;;;;;;;;;;5090450;28;20032;-73
2023/12/06 13:26:26;;;;;;;21.58;12.95;;;;;;;;;;5085855;28;20421;-73
2023/12/06 13:28:52;;;;;;;19.58;12.60;;;;;;;;;;5088868;28;20359;-73
2023/12/06 13:31:18;;;;;;;20.13;13.30;;;;;;;;;;5083931;28;20055;-73
2023/12/06 13:33:44;;;;;;;18.50;12.40;;;;;;;;;;5073987;28;20528;-73
2023/12/06 13:36:10;;;;;;;20.60;12.30;;;;;;;;;;5074293;28;20119;-73
2023/12/06 13:38:36;;;;;;;19.63;12.45;;;;;;;;;;5083650;28;20657;-73
2023/12/06 13:41:03;;;;;;;18.63;12.00;;;;;;;;;;5089639;28;20048;-73
2023/12/06 13:43:29;;;;;;;18.48;11.82;;;;;;;;;;5073375;28;20048;-73
2023/12/06 13:45:55;;;;;;;18.48;12.52;;;;;;;;;;5073698;28;20517;-73
2023/12/06 13:48:21;;;;;;;14.80;11.60;;;;;;;;;;5073755;28;20054;-73
2023/12/06 13:50:47;;;;;;;15.43;11.90;;;;;;;;;;5089812;28;20044;-73
2023/12/06 13:53:13;;;;;;;18.70;12.40;;;;;;;;;;5090701;28;20621;-73
2023/12/06 13:55:40;;;;;;;15.57;11.70;;;;;;;;;;5090432;28;20593;-73
2023/12/06 13:58:06;;;;;;;19.13;11.80;;;;;;;;;;5072430;28;20197;-73
2023/12/06 14:00:32;;;;;;;19.60;11.27;;;;;;;;;;5089310;28;20055;-73
2023/12/06 14:02:58;;;;;;;15.38;10.60;;;;;;;;;;5089523;28;20048;-73
2023/12/06 14:05:24;;;;;;;14.05;9.48;;;;;;;;;;5072091;28;20028;-73
2023/12/06 14:07:50;;;;;;;17.27;11.52;;;;;;;;;;5072790;28;20040;-73
2023/12/06 14:10:16;;;;;;;16.23;10.32;;;;;;;;;;5083608;28;20120;-73
2023/12/06 14:12:42;;;;;;;16.23;10.68;;;;;;;;;;5085866;28;20083;-73